createdAt,value
2023-01-31T17:02:23.149Z,163.50
2023-01-31T17:04:20.306Z,152.50
2023-01-31T17:05:52.715Z,167.75
2023-01-31T17:07:24.653Z,164.25
2023-01-31T17:08:56.858Z,159.25
2023-01-31T17:10:34.544Z,164.50
2023-01-31T17:12:06.549Z,148.50
2023-01-31T17:13:38.513Z,152.50
2023-01-31T17:15:17.912Z,140.75
2023-01-31T17:16:53.858Z,141.75
2023-01-31T17:18:26.144Z,141.25
2023-01-31T17:19:58.638Z,130.50
2023-01-31T17:21:32.060Z,148.50
2023-01-31T17:23:04.231Z,135.00
2023-01-31T17:24:36.523Z,139.25
2023-01-31T17:26:18.245Z,150.25
2023-01-31T17:27:50.488Z,129.50
2023-01-31T17:29:23.431Z,112.50
2023-01-31T17:30:55.485Z,117.75
2023-01-31T17:32:27.492Z,110.60
2023-01-31T17:33:59.349Z,110.00
2023-01-31T17:35:38.939Z,114.40
2023-01-31T17:37:11.177Z,103.80
2023-01-31T17:38:44.313Z,107.40
2023-01-31T17:40:16.740Z,99.20
2023-01-31T17:41:48.771Z,104.60
2023-01-31T17:43:21.540Z,95.75
2023-01-31T17:44:53.449Z,101.00
2023-01-31T17:46:25.500Z,93.25
2023-01-31T17:47:57.403Z,91.40
2023-01-31T17:49:29.491Z,93.00
2023-01-31T17:51:01.414Z,95.00
2023-01-31T17:52:33.335Z,99.00
2023-01-31T17:54:05.546Z,105.80
2023-01-31T17:55:37.465Z,97.20
2023-01-31T17:57:09.596Z,100.60
2023-01-31T17:58:41.927Z,97.40
2023-01-31T18:00:15.590Z,97.00
2023-01-31T18:01:47.899Z,95.40
2023-01-31T18:03:20.612Z,108.80
2023-01-31T18:04:52.607Z,97.00
2023-01-31T18:06:24.469Z,92.80
2023-01-31T18:07:56.474Z,83.00
2023-01-31T18:09:28.381Z,132.00
2023-01-31T18:11:15.107Z,139.50
2023-01-31T18:12:47.186Z,110.50
2023-01-31T18:14:19.218Z,116.40
2023-01-31T18:15:51.288Z,103.20
2023-01-31T18:17:23.245Z,103.20
2023-01-31T18:18:55.570Z,104.20
2023-01-31T18:20:27.679Z,101.80
2023-01-31T18:21:59.867Z,103.40
2023-01-31T18:23:32.540Z,121.25
2023-01-31T18:25:05.482Z,136.00
2023-01-31T18:26:37.589Z,147.25
2023-01-31T18:28:09.534Z,169.50
2023-01-31T18:29:41.495Z,168.00
2023-01-31T18:31:15.758Z,177.50
2023-01-31T18:32:47.903Z,182.50
2023-01-31T18:34:19.807Z,192.50
2023-01-31T18:35:58.752Z,193.75
2023-01-31T18:37:30.867Z,193.50
2023-01-31T18:39:02.764Z,200.67
2023-01-31T18:40:34.720Z,202.67
2023-01-31T18:42:06.665Z,208.33
2023-01-31T18:43:38.621Z,206.67
2023-01-31T18:45:11.041Z,209.67
2023-01-31T18:46:43.113Z,206.67
2023-01-31T18:48:15.090Z,265.25
2023-01-31T18:49:46.932Z,244.33
2023-01-31T18:51:19.112Z,229.33
2023-01-31T18:52:51.065Z,226.33
2023-01-31T18:54:23.173Z,223.00
2023-01-31T18:56:04.019Z,222.00
2023-01-31T18:57:37.672Z,217.00
2023-01-31T18:59:09.645Z,219.33
2023-01-31T19:00:41.997Z,232.33
2023-01-31T19:02:14.057Z,243.00
2023-01-31T19:03:47.014Z,221.33
2023-01-31T19:05:19.990Z,213.00
2023-01-31T19:06:53.187Z,220.00
2023-01-31T19:08:25.153Z,213.33
2023-01-31T19:09:57.069Z,223.67
2023-01-31T19:11:30.160Z,214.33
2023-01-31T19:13:02.228Z,218.00
2023-01-31T19:14:34.132Z,220.33
2023-01-31T19:16:07.959Z,211.67
2023-01-31T19:17:39.981Z,211.00
2023-01-31T19:19:12.392Z,207.75
2023-01-31T19:20:44.376Z,194.75
2023-01-31T19:22:17.686Z,181.50
2023-01-31T19:23:50.465Z,195.75
2023-01-31T19:25:22.829Z,175.75
2023-01-31T19:26:56.074Z,200.00
2023-01-31T19:28:28.250Z,181.25
2023-01-31T19:30:00.542Z,182.25
2023-01-31T19:31:33.837Z,159.25
2023-01-31T19:33:06.630Z,164.75
2023-01-31T19:34:38.558Z,167.50
2023-01-31T19:36:23.781Z,151.50
2023-01-31T19:37:55.814Z,153.50
2023-01-31T19:39:27.697Z,130.00
2023-01-31T19:41:10.465Z,136.75
2023-01-31T19:42:44.085Z,116.50
2023-01-31T19:44:16.093Z,131.50
2023-01-31T19:45:48.582Z,123.50
2023-01-31T19:47:20.837Z,127.00
2023-01-31T19:48:52.785Z,122.80
2023-01-31T19:50:24.690Z,120.20
2023-01-31T19:51:56.623Z,118.20
2023-01-31T19:53:29.792Z,115.40
2023-01-31T19:55:01.666Z,116.80
2023-01-31T19:56:33.703Z,123.50
2023-01-31T19:58:05.659Z,125.50
2023-01-31T19:59:37.562Z,120.75
2023-01-31T20:01:11.581Z,120.25
2023-01-31T20:02:43.601Z,128.50
2023-01-31T20:04:15.573Z,128.00
2023-01-31T20:05:47.581Z,129.00
2023-01-31T20:07:19.615Z,117.25
2023-01-31T20:08:53.016Z,119.00
2023-01-31T20:10:25.138Z,127.25
2023-01-31T20:11:57.432Z,124.00
2023-01-31T20:13:29.833Z,127.00
2023-01-31T20:15:01.904Z,114.25
2023-01-31T20:16:33.774Z,129.75
2023-01-31T20:18:05.850Z,123.50
2023-01-31T20:19:37.756Z,114.25
2023-01-31T20:21:15.032Z,114.50
2023-01-31T20:22:46.936Z,120.80
2023-01-31T20:24:18.913Z,118.80
2023-01-31T20:25:51.404Z,119.80
2023-01-31T20:27:25.178Z,118.00
2023-01-31T20:28:57.675Z,98.60
2023-01-31T20:30:29.889Z,104.40
2023-01-31T20:32:02.143Z,108.00
2023-01-31T20:33:34.167Z,101.20
2023-01-31T20:35:06.534Z,106.60
2023-01-31T20:36:38.700Z,92.60
2023-01-31T20:38:11.336Z,100.50
2023-01-31T20:39:43.342Z,99.75
2023-01-31T20:41:15.261Z,94.00
2023-01-31T20:42:47.238Z,90.25
2023-01-31T20:44:19.149Z,82.50
2023-01-31T20:45:51.235Z,85.00
2023-01-31T20:47:23.510Z,82.50
2023-01-31T20:48:56.288Z,87.00
2023-01-31T20:50:28.147Z,83.00
2023-01-31T20:52:00.219Z,81.50
2023-01-31T20:53:32.228Z,80.50
2023-01-31T20:55:04.684Z,79.25
2023-01-31T20:56:36.479Z,78.00
2023-01-31T20:58:08.396Z,75.50
2023-01-31T20:59:40.292Z,74.25
2023-01-31T21:01:12.468Z,73.75
2023-01-31T21:02:44.743Z,74.50
2023-01-31T21:04:16.705Z,74.50
2023-01-31T21:05:48.787Z,69.50
2023-01-31T21:07:20.728Z,66.75
2023-01-31T21:08:52.722Z,67.50
2023-01-31T21:10:24.653Z,74.25
2023-01-31T21:11:56.517Z,68.75
2023-01-31T21:13:29.168Z,67.50
2023-01-31T21:15:01.071Z,62.50
2023-01-31T21:16:33.045Z,65.75
2023-01-31T21:18:04.999Z,62.00
2023-01-31T21:19:36.877Z,60.75
2023-01-31T21:21:10.774Z,66.00
2023-01-31T21:22:42.784Z,59.00
2023-01-31T21:24:14.772Z,49.40
2023-01-31T21:25:46.635Z,64.00
2023-01-31T21:27:18.586Z,59.50
2023-01-31T21:28:50.563Z,58.50
2023-01-31T21:30:22.767Z,59.00
2023-01-31T21:31:55.080Z,59.20
2023-01-31T21:33:28.413Z,53.20
2023-01-31T21:35:00.840Z,46.40
2023-01-31T21:36:34.302Z,44.00
2023-01-31T21:38:06.235Z,58.60
2023-01-31T21:39:38.088Z,70.50
2023-01-31T21:41:28.718Z,68.50
2023-01-31T21:43:00.615Z,70.75
2023-01-31T21:44:32.523Z,70.00
2023-01-31T21:46:08.018Z,69.25
2023-01-31T21:47:59.933Z,76.50
2023-01-31T21:49:31.822Z,71.25
2023-01-31T21:51:05.003Z,71.75
2023-01-31T21:52:36.942Z,79.50
2023-01-31T21:54:09.321Z,78.00
2023-01-31T21:55:41.174Z,72.75
2023-01-31T21:57:13.008Z,77.75
2023-01-31T21:58:45.183Z,82.00
2023-01-31T22:00:17.792Z,80.75
2023-01-31T22:01:51.705Z,84.75
2023-01-31T22:03:23.821Z,92.50
2023-01-31T22:04:55.670Z,82.50
2023-01-31T22:06:31.572Z,86.50
2023-01-31T22:08:03.643Z,85.75
2023-01-31T22:09:35.592Z,81.00
2023-01-31T22:11:14.260Z,92.25
2023-01-31T22:12:46.156Z,87.50
2023-01-31T22:14:18.157Z,90.00
2023-01-31T22:15:50.036Z,82.75
2023-01-31T22:17:21.881Z,81.00
2023-01-31T22:18:53.825Z,81.25
2023-01-31T22:20:25.697Z,94.75
2023-01-31T22:21:58.695Z,79.75
2023-01-31T22:23:30.790Z,94.50
2023-01-31T22:25:02.785Z,86.75
2023-01-31T22:26:36.680Z,82.75
2023-01-31T22:28:08.606Z,83.75
2023-01-31T22:29:41.661Z,80.75
2023-01-31T22:31:13.841Z,84.25
2023-01-31T22:32:45.829Z,77.00
2023-01-31T22:34:18.510Z,80.75
2023-01-31T22:35:50.683Z,82.50
2023-01-31T22:37:22.633Z,76.25
2023-01-31T22:38:54.777Z,79.50
2023-01-31T22:40:26.642Z,76.75
2023-01-31T22:41:58.532Z,79.00
2023-01-31T22:43:30.504Z,81.50
2023-01-31T22:45:02.626Z,83.75
2023-01-31T22:46:34.765Z,85.50
2023-01-31T22:48:06.733Z,82.50
2023-01-31T22:49:38.612Z,79.00
2023-01-31T22:51:12.705Z,92.00
2023-01-31T22:52:44.630Z,104.25
2023-01-31T22:54:18.735Z,105.00
2023-01-31T22:55:50.673Z,90.40
2023-01-31T22:57:22.549Z,110.40
2023-01-31T22:59:04.393Z,108.20
2023-01-31T23:00:36.984Z,103.80
2023-01-31T23:02:08.859Z,105.00
2023-01-31T23:03:40.782Z,97.80
2023-01-31T23:05:13.812Z,111.80
2023-01-31T23:06:45.686Z,118.60
2023-01-31T23:08:17.682Z,162.75
2023-01-31T23:09:49.649Z,161.00
2023-01-31T23:11:21.674Z,145.75
2023-01-31T23:12:53.816Z,118.50
2023-01-31T23:14:25.816Z,105.25
2023-01-31T23:15:57.832Z,125.00
2023-01-31T23:17:38.790Z,112.60
2023-01-31T23:19:10.915Z,116.25
2023-01-31T23:20:42.854Z,112.25
2023-01-31T23:22:15.568Z,116.75
2023-01-31T23:23:47.595Z,116.00
2023-01-31T23:25:19.574Z,117.25
2023-01-31T23:26:51.592Z,109.25
2023-01-31T23:28:23.401Z,128.00
2023-01-31T23:29:55.250Z,118.25
2023-01-31T23:31:27.333Z,109.00
2023-01-31T23:32:59.464Z,111.25
2023-01-31T23:34:31.339Z,118.00
